createdAt,value
2022-12-18T00:00:10.464Z,28.13
2022-12-18T00:02:45.749Z,30.03
2022-12-18T00:05:15.545Z,27.57
2022-12-18T00:07:43.814Z,30.23
2022-12-18T00:10:12.092Z,30.37
2022-12-18T00:12:46.827Z,27.73
2022-12-18T00:15:15.095Z,29.50
2022-12-18T00:17:43.352Z,29.47
2022-12-18T00:20:12.333Z,28.10
2022-12-18T00:22:42.170Z,26.93
2022-12-18T00:25:10.723Z,27.40
2022-12-18T00:27:38.920Z,27.70
2022-12-18T00:30:08.184Z,25.93
2022-12-18T00:32:36.443Z,25.90
2022-12-18T00:35:05.856Z,26.07
2022-12-18T00:37:36.070Z,27.77
2022-12-18T00:40:06.525Z,26.93
2022-12-18T00:42:52.186Z,26.37
2022-12-18T00:45:20.934Z,26.07
2022-12-18T00:47:49.162Z,24.50
2022-12-18T00:50:17.904Z,24.83
2022-12-18T00:52:46.131Z,25.30
2022-12-18T00:55:16.566Z,24.40
2022-12-18T00:57:44.821Z,24.67
2022-12-18T01:00:16.273Z,27.00
2022-12-18T01:02:44.686Z,26.83
2022-12-18T01:05:14.733Z,25.47
2022-12-18T01:07:43.191Z,25.27
2022-12-18T01:10:15.380Z,25.93
2022-12-18T01:12:43.740Z,26.40
2022-12-18T01:15:13.968Z,24.60
2022-12-18T01:17:42.253Z,24.37
2022-12-18T01:20:13.137Z,25.50
2022-12-18T01:22:41.411Z,25.37
2022-12-18T01:25:10.779Z,25.20
2022-12-18T01:27:40.385Z,26.87
2022-12-18T01:30:09.753Z,25.40
2022-12-18T01:32:38.180Z,27.77
2022-12-18T01:35:07.992Z,27.43
2022-12-18T01:37:36.272Z,27.37
2022-12-18T01:40:05.321Z,24.77
2022-12-18T01:42:33.576Z,26.03
2022-12-18T01:45:07.477Z,26.20
2022-12-18T01:47:41.241Z,26.80
2022-12-18T01:50:14.730Z,27.10
2022-12-18T01:52:44.976Z,27.03
2022-12-18T01:55:14.824Z,26.73
2022-12-18T01:57:43.811Z,26.20
2022-12-18T02:00:16.888Z,26.47
2022-12-18T02:02:47.218Z,24.20
2022-12-18T02:05:18.723Z,24.97
2022-12-18T02:08:04.642Z,26.10
2022-12-18T02:10:40.092Z,25.63
2022-12-18T02:13:14.948Z,24.43
2022-12-18T02:15:50.413Z,25.57
2022-12-18T02:18:25.191Z,23.07
2022-12-18T02:21:00.124Z,24.77
2022-12-18T02:23:52.453Z,24.70
2022-12-18T02:26:28.328Z,22.87
2022-12-18T02:29:01.851Z,26.67
2022-12-18T02:31:37.836Z,25.37
2022-12-18T02:34:09.963Z,24.50
2022-12-18T02:36:43.520Z,25.23
2022-12-18T02:39:14.298Z,26.50
2022-12-18T02:41:53.637Z,25.30
2022-12-18T02:44:23.279Z,25.93
2022-12-18T02:46:53.535Z,24.80
2022-12-18T02:49:37.371Z,24.53
2022-12-18T02:52:12.614Z,25.10
2022-12-18T02:54:52.657Z,24.13
2022-12-18T02:57:32.400Z,23.70
2022-12-18T03:00:07.271Z,23.60
2022-12-18T03:02:42.402Z,24.93
2022-12-18T03:05:16.968Z,24.13
2022-12-18T03:07:51.222Z,24.17
2022-12-18T03:10:26.032Z,21.70
2022-12-18T03:13:01.031Z,23.33
2022-12-18T03:15:33.991Z,23.40
2022-12-18T03:18:13.665Z,22.17
2022-12-18T03:20:45.666Z,23.03
2022-12-18T03:23:21.474Z,23.47
2022-12-18T03:25:56.564Z,21.27
2022-12-18T03:28:33.814Z,22.37
2022-12-18T03:31:07.783Z,24.47
2022-12-18T03:33:41.382Z,21.53
2022-12-18T03:36:10.388Z,21.33
2022-12-18T03:38:40.132Z,21.80
2022-12-18T03:41:18.979Z,21.10
2022-12-18T03:44:28.981Z,21.43
2022-12-18T03:47:05.735Z,20.37
2022-12-18T03:49:37.459Z,21.00
2022-12-18T03:52:12.941Z,17.93
2022-12-18T03:54:45.028Z,19.33
2022-12-18T03:57:20.339Z,19.80
2022-12-18T03:59:55.685Z,18.43
2022-12-18T04:02:27.338Z,19.90
2022-12-18T04:05:01.203Z,20.67
2022-12-18T04:07:30.339Z,18.33
2022-12-18T04:10:02.061Z,20.63
2022-12-18T04:12:32.840Z,20.90
2022-12-18T04:15:03.020Z,18.53
2022-12-18T04:17:31.582Z,18.07
2022-12-18T04:20:00.766Z,19.70
2022-12-18T04:22:29.666Z,16.97
2022-12-18T04:25:01.301Z,17.70
2022-12-18T04:27:40.347Z,17.57
2022-12-18T04:30:12.942Z,18.20
2022-12-18T04:32:41.189Z,18.00
2022-12-18T04:35:11.597Z,18.00
2022-12-18T04:37:41.398Z,17.17
2022-12-18T04:40:10.921Z,18.07
2022-12-18T04:42:43.799Z,16.27
2022-12-18T04:45:13.744Z,17.53
2022-12-18T04:47:42.001Z,16.83
2022-12-18T04:50:10.428Z,16.03
2022-12-18T04:52:38.659Z,17.00
2022-12-18T04:55:07.906Z,16.80
2022-12-18T04:57:36.256Z,17.53
2022-12-18T05:00:06.000Z,18.27
2022-12-18T05:02:35.817Z,18.00
2022-12-18T05:05:04.210Z,16.57
2022-12-18T05:07:32.458Z,16.30
2022-12-18T05:10:00.668Z,14.90
2022-12-18T05:12:28.903Z,16.47
2022-12-18T05:14:57.184Z,15.50
2022-12-18T05:17:25.454Z,15.00
2022-12-18T05:19:55.037Z,15.07
2022-12-18T05:22:23.293Z,15.10
2022-12-18T05:24:51.505Z,14.13
2022-12-18T05:27:21.624Z,14.17
2022-12-18T05:29:50.066Z,15.10
2022-12-18T05:32:18.292Z,12.80
2022-12-18T05:34:46.467Z,14.13
2022-12-18T05:37:16.570Z,12.77
2022-12-18T05:39:45.860Z,12.33
2022-12-18T05:42:14.066Z,12.80
2022-12-18T05:44:42.529Z,12.63
2022-12-18T05:47:10.822Z,12.20
2022-12-18T05:49:39.080Z,12.00
2022-12-18T05:52:07.564Z,12.97
2022-12-18T05:54:37.363Z,14.77
2022-12-18T05:57:05.703Z,14.13
2022-12-18T05:59:34.126Z,14.73
2022-12-18T06:02:02.624Z,14.07
2022-12-18T06:04:30.945Z,12.83
2022-12-18T06:06:59.405Z,12.93
2022-12-18T06:09:27.792Z,12.70
2022-12-18T06:11:57.402Z,14.13
2022-12-18T06:14:25.666Z,12.17
2022-12-18T06:16:53.909Z,13.13
2022-12-18T06:19:22.174Z,12.50
2022-12-18T06:21:51.752Z,12.33
2022-12-18T06:24:20.073Z,13.17
2022-12-18T06:26:48.291Z,11.70
2022-12-18T06:29:17.912Z,12.20
2022-12-18T06:31:46.693Z,12.00
2022-12-18T06:34:14.970Z,12.53
2022-12-18T06:36:43.295Z,12.17
2022-12-18T06:39:11.533Z,12.90
2022-12-18T06:41:39.891Z,13.27
2022-12-18T06:44:08.275Z,14.00
2022-12-18T06:46:38.989Z,14.10
2022-12-18T06:49:07.748Z,13.70
2022-12-18T06:51:36.032Z,13.00
2022-12-18T06:54:05.009Z,12.67
2022-12-18T06:56:33.307Z,13.43
2022-12-18T06:59:01.676Z,13.33
2022-12-18T07:01:29.996Z,13.67
2022-12-18T07:04:00.083Z,13.93
2022-12-18T07:06:28.517Z,14.00
2022-12-18T07:08:57.285Z,14.20
2022-12-18T07:11:25.962Z,13.17
2022-12-18T07:13:54.801Z,14.00
2022-12-18T07:16:25.607Z,12.80
2022-12-18T07:18:54.829Z,13.23
2022-12-18T07:21:26.177Z,12.30
2022-12-18T07:23:54.983Z,12.33
2022-12-18T07:26:24.085Z,12.03
2022-12-18T07:28:52.623Z,10.90
2022-12-18T07:31:22.977Z,11.07
2022-12-18T07:33:52.408Z,12.50
2022-12-18T07:36:21.361Z,12.23
2022-12-18T07:38:52.598Z,10.83
2022-12-18T07:41:20.800Z,14.13
2022-12-18T07:43:49.476Z,12.03
2022-12-18T07:46:18.798Z,13.87
2022-12-18T07:48:50.075Z,11.60
2022-12-18T07:51:19.522Z,12.23
2022-12-18T07:53:49.284Z,9.47
2022-12-18T07:56:27.700Z,13.07
2022-12-18T07:58:56.955Z,10.93
2022-12-18T08:01:25.702Z,10.97
2022-12-18T08:03:54.143Z,11.27
2022-12-18T08:06:24.086Z,11.80
2022-12-18T08:08:54.548Z,10.77
2022-12-18T08:11:25.146Z,12.73
2022-12-18T08:13:53.543Z,11.77
2022-12-18T08:16:22.809Z,11.53
2022-12-18T08:18:51.459Z,10.47
2022-12-18T08:21:22.173Z,10.53
2022-12-18T08:23:51.755Z,11.63
2022-12-18T08:26:20.970Z,10.73
2022-12-18T08:28:51.591Z,9.83
2022-12-18T08:31:20.566Z,10.10
2022-12-18T08:33:51.321Z,9.97
2022-12-18T08:36:20.156Z,10.07
2022-12-18T08:38:48.668Z,10.60
2022-12-18T08:41:18.978Z,9.93
2022-12-18T08:44:05.151Z,10.67
2022-12-18T08:46:39.335Z,9.53
2022-12-18T08:49:08.965Z,10.87
2022-12-18T08:51:37.835Z,9.77
2022-12-18T08:54:07.831Z,10.70
2022-12-18T08:56:36.330Z,11.00
2022-12-18T08:59:05.451Z,10.20
2022-12-18T09:01:33.878Z,9.80
2022-12-18T09:04:06.181Z,11.83
2022-12-18T09:06:35.878Z,9.93
2022-12-18T09:09:06.215Z,10.07
2022-12-18T09:11:35.093Z,9.27
2022-12-18T09:14:03.784Z,9.47
2022-12-18T09:16:35.959Z,9.93
2022-12-18T09:19:07.437Z,9.13
2022-12-18T09:21:37.609Z,9.60
2022-12-18T09:24:08.859Z,8.63
2022-12-18T09:26:37.621Z,9.90
2022-12-18T09:29:08.142Z,9.53
2022-12-18T09:31:36.800Z,10.60
2022-12-18T09:34:08.072Z,9.67
2022-12-18T09:36:36.565Z,10.13
2022-12-18T09:39:08.465Z,9.00
2022-12-18T09:41:45.133Z,9.20
2022-12-18T09:44:21.088Z,10.53
2022-12-18T09:46:57.782Z,8.83
2022-12-18T09:49:31.373Z,9.23
2022-12-18T09:52:06.880Z,9.43
2022-12-18T09:54:38.760Z,8.90
2022-12-18T09:57:07.657Z,10.00
2022-12-18T09:59:40.178Z,10.47
2022-12-18T10:02:18.000Z,9.60
2022-12-18T10:04:55.558Z,10.03
2022-12-18T10:07:29.561Z,9.77
2022-12-18T10:10:05.962Z,8.73
2022-12-18T10:12:41.493Z,10.10
2022-12-18T10:15:17.144Z,9.70
2022-12-18T10:17:51.593Z,9.03
2022-12-18T10:20:28.182Z,7.97
2022-12-18T10:23:02.261Z,8.50
2022-12-18T10:25:35.949Z,9.37
2022-12-18T10:28:12.727Z,8.93
2022-12-18T10:30:41.778Z,8.30
2022-12-18T10:33:16.346Z,9.40
2022-12-18T10:35:47.494Z,9.47
2022-12-18T10:38:27.277Z,9.07
2022-12-18T10:40:58.030Z,9.83
2022-12-18T10:43:28.778Z,8.83
2022-12-18T10:46:10.401Z,9.77
2022-12-18T10:48:44.019Z,9.50
2022-12-18T10:51:23.085Z,9.33
2022-12-18T10:53:57.378Z,9.80
2022-12-18T10:56:28.128Z,9.97
2022-12-18T10:59:02.517Z,9.97
2022-12-18T11:01:47.544Z,9.73
2022-12-18T11:04:20.736Z,8.83
2022-12-18T11:07:02.055Z,8.80
2022-12-18T11:09:32.766Z,9.20
2022-12-18T11:12:03.576Z,9.70
2022-12-18T11:14:35.854Z,10.67
2022-12-18T11:19:56.271Z,9.67
2022-12-18T11:22:28.934Z,10.53
2022-12-18T11:27:54.590Z,9.40
2022-12-18T11:30:25.628Z,9.20
2022-12-18T11:32:58.112Z,10.70
2022-12-18T11:35:37.721Z,10.77
2022-12-18T11:38:19.437Z,10.43
2022-12-18T11:40:53.385Z,10.50
2022-12-18T11:43:28.292Z,10.03
2022-12-18T11:46:01.298Z,10.77
2022-12-18T11:48:35.047Z,9.90
2022-12-18T11:51:07.562Z,9.60
2022-12-18T11:53:39.204Z,11.90
2022-12-18T11:56:28.456Z,10.43
2022-12-18T11:59:10.595Z,10.47
2022-12-18T12:01:50.813Z,10.57
2022-12-18T12:04:49.608Z,11.87
2022-12-18T12:07:35.707Z,10.30
2022-12-18T12:10:21.137Z,9.67
2022-12-18T12:13:03.043Z,9.43
2022-12-18T12:15:41.426Z,11.03
2022-12-18T12:18:23.550Z,10.37
2022-12-18T12:21:02.915Z,10.13
2022-12-18T12:23:41.303Z,12.30
2022-12-18T12:26:13.835Z,10.20
2022-12-18T12:29:03.943Z,11.47
2022-12-18T12:31:47.375Z,10.17
2022-12-18T12:34:21.812Z,11.33
2022-12-18T12:37:03.480Z,10.77
2022-12-18T12:39:35.578Z,11.00
2022-12-18T12:42:25.137Z,10.83
2022-12-18T12:44:57.080Z,9.73
2022-12-18T12:47:29.900Z,10.93
2022-12-18T12:50:00.344Z,10.73
2022-12-18T12:52:35.679Z,10.80
2022-12-18T12:55:11.517Z,11.63
2022-12-18T12:57:48.123Z,10.57
2022-12-18T13:00:20.212Z,11.33
2022-12-18T13:02:55.804Z,12.00
2022-12-18T13:05:29.156Z,10.77
2022-12-18T13:08:02.956Z,10.97
2022-12-18T13:10:37.754Z,10.13
2022-12-18T13:13:10.654Z,11.03
2022-12-18T13:15:41.965Z,13.17
2022-12-18T13:18:19.739Z,10.47
2022-12-18T13:20:55.139Z,13.13
2022-12-18T13:23:33.556Z,10.53
2022-12-18T13:26:28.909Z,12.57
2022-12-18T13:29:02.899Z,11.30
2022-12-18T13:32:13.721Z,10.87
2022-12-18T13:34:45.376Z,10.80
2022-12-18T13:37:45.289Z,11.77
2022-12-18T13:40:49.703Z,11.30
2022-12-18T13:43:29.461Z,11.53
2022-12-18T13:46:08.645Z,11.30
2022-12-18T13:48:41.419Z,11.73
2022-12-18T13:51:13.033Z,11.87
2022-12-18T13:53:47.147Z,11.20
2022-12-18T13:56:18.868Z,11.60
2022-12-18T13:58:47.512Z,11.60
2022-12-18T14:01:25.814Z,12.27
2022-12-18T14:04:11.528Z,11.20
2022-12-18T14:06:40.496Z,11.10
2022-12-18T14:09:13.987Z,11.80
2022-12-18T14:11:48.125Z,12.33
2022-12-18T14:14:18.483Z,11.07
2022-12-18T14:16:49.191Z,12.50
2022-12-18T14:19:19.773Z,12.37
2022-12-18T14:21:49.723Z,13.83
2022-12-18T14:24:19.976Z,12.23
2022-12-18T14:26:50.232Z,13.93
2022-12-18T14:29:25.153Z,13.30
2022-12-18T14:32:17.533Z,13.40
2022-12-18T14:34:47.668Z,14.10
2022-12-18T14:37:18.138Z,13.67
2022-12-18T14:40:02.176Z,14.67
2022-12-18T14:42:34.840Z,14.10
2022-12-18T14:45:41.040Z,13.67
2022-12-18T14:48:22.911Z,14.17
2022-12-18T14:51:00.721Z,13.93
2022-12-18T14:53:37.913Z,14.03
2022-12-18T14:56:16.349Z,14.37
2022-12-18T14:58:49.181Z,13.40
2022-12-18T15:01:23.889Z,13.87
2022-12-18T15:03:54.752Z,14.63
2022-12-18T15:06:31.194Z,14.93
2022-12-18T15:09:00.388Z,14.03
2022-12-18T15:11:34.210Z,14.17
2022-12-18T15:14:23.128Z,15.03
2022-12-18T15:16:54.586Z,13.17
2022-12-18T15:19:29.121Z,15.23
2022-12-18T15:22:01.476Z,13.97
2022-12-18T15:24:35.087Z,14.70
2022-12-18T15:27:03.587Z,15.10
2022-12-18T15:29:32.671Z,14.27
2022-12-18T15:32:06.891Z,14.13
2022-12-18T15:34:36.603Z,14.10
2022-12-18T15:37:05.310Z,14.57
2022-12-18T15:39:33.917Z,13.83
2022-12-18T15:42:20.942Z,14.23
2022-12-18T15:44:49.544Z,13.70
2022-12-18T15:47:18.062Z,15.07
2022-12-18T15:49:47.874Z,15.57
2022-12-18T15:52:26.955Z,13.70
2022-12-18T15:55:12.901Z,14.83
2022-12-18T15:57:41.161Z,13.63
2022-12-18T16:00:14.708Z,14.50
2022-12-18T16:02:43.126Z,12.53
2022-12-18T16:05:17.960Z,14.83
2022-12-18T16:07:46.374Z,15.13
2022-12-18T16:10:14.682Z,15.37
2022-12-18T16:12:43.711Z,15.00
2022-12-18T16:15:15.862Z,14.37
2022-12-18T16:17:46.496Z,15.27
2022-12-18T16:20:18.415Z,15.37
2022-12-18T16:22:48.460Z,16.50
2022-12-18T16:25:21.181Z,15.43
2022-12-18T16:27:49.876Z,15.23
2022-12-18T16:30:22.979Z,14.87
2022-12-18T16:32:51.471Z,15.13
2022-12-18T16:35:21.132Z,14.50
2022-12-18T16:37:49.427Z,16.23
2022-12-18T16:40:19.096Z,13.33
2022-12-18T16:42:48.010Z,15.27
2022-12-18T16:45:18.353Z,15.47
2022-12-18T16:47:47.167Z,14.70
2022-12-18T16:50:15.663Z,15.07
2022-12-18T16:52:45.348Z,14.13
2022-12-18T16:55:13.671Z,13.40
2022-12-18T16:57:41.930Z,13.83
2022-12-18T17:00:11.657Z,15.20
2022-12-18T17:02:40.658Z,13.87
2022-12-18T17:05:09.446Z,14.20
2022-12-18T17:07:40.415Z,15.00
2022-12-18T17:10:11.092Z,15.07
2022-12-18T17:12:39.366Z,15.03
2022-12-18T17:15:09.264Z,13.97
2022-12-18T17:17:37.644Z,14.10
2022-12-18T17:20:08.474Z,13.37
2022-12-18T17:22:36.788Z,14.40
2022-12-18T17:25:06.717Z,13.87
2022-12-18T17:27:36.377Z,13.40
2022-12-18T17:30:06.124Z,13.60
2022-12-18T17:32:34.639Z,14.10
2022-12-18T17:35:07.212Z,13.90
2022-12-18T17:37:36.893Z,13.87
2022-12-18T17:40:07.494Z,13.53
2022-12-18T17:42:38.113Z,14.20
2022-12-18T17:45:08.905Z,14.77
2022-12-18T17:47:37.992Z,15.37
2022-12-18T17:50:09.290Z,14.63
2022-12-18T17:52:38.012Z,13.97
2022-12-18T17:55:08.322Z,14.53
2022-12-18T17:57:38.089Z,15.57
2022-12-18T18:00:12.686Z,14.60
2022-12-18T18:02:41.939Z,15.17
2022-12-18T18:05:11.951Z,14.30
2022-12-18T18:07:42.714Z,15.07
2022-12-18T18:10:11.390Z,14.90
2022-12-18T18:12:59.378Z,14.93
2022-12-18T18:15:28.266Z,15.50
2022-12-18T18:17:56.629Z,15.10
2022-12-18T18:20:24.867Z,16.33
2022-12-18T18:22:53.274Z,16.00
2022-12-18T18:25:21.584Z,14.80
2022-12-18T18:27:52.104Z,15.63
2022-12-18T18:30:20.378Z,16.87
2022-12-18T18:32:48.677Z,16.00
2022-12-18T18:35:51.900Z,15.77
2022-12-18T18:38:07.525Z,18.00
2022-12-18T18:40:36.973Z,17.20
2022-12-18T18:43:09.702Z,16.63
2022-12-18T18:45:38.199Z,16.53
2022-12-18T18:48:09.732Z,15.23
2022-12-18T18:50:39.175Z,18.07
2022-12-18T18:53:09.204Z,18.87
2022-12-18T18:55:38.737Z,17.63
2022-12-18T18:58:09.830Z,19.97
2022-12-18T19:00:38.289Z,21.67
2022-12-18T19:03:08.374Z,17.73
2022-12-18T19:05:37.092Z,19.43
2022-12-18T19:08:08.137Z,17.13
2022-12-18T19:10:41.928Z,18.30
2022-12-18T19:13:21.422Z,17.67
2022-12-18T19:15:49.757Z,18.23
2022-12-18T19:18:18.121Z,17.87
2022-12-18T19:20:46.347Z,17.83
2022-12-18T19:23:14.699Z,19.03
2022-12-18T19:25:42.942Z,16.47
2022-12-18T19:28:21.252Z,20.07
2022-12-18T19:30:57.328Z,17.77
2022-12-18T19:33:45.199Z,17.70
2022-12-18T19:36:21.583Z,18.30
2022-12-18T19:38:51.054Z,20.33
2022-12-18T19:41:20.905Z,19.20
2022-12-18T19:43:51.587Z,18.80
2022-12-18T19:46:22.855Z,17.07
2022-12-18T19:48:51.976Z,18.03
2022-12-18T19:51:22.876Z,17.70
2022-12-18T19:53:56.589Z,19.67
2022-12-18T19:56:28.179Z,17.27
2022-12-18T19:58:58.392Z,17.53
2022-12-18T20:01:28.630Z,16.80
2022-12-18T20:03:58.116Z,17.70
2022-12-18T20:06:29.499Z,16.53
2022-12-18T20:09:00.543Z,17.30
2022-12-18T20:11:30.331Z,17.70
2022-12-18T20:14:02.952Z,17.77
2022-12-18T20:16:31.881Z,18.10
2022-12-18T20:19:01.709Z,16.50
2022-12-18T20:21:30.554Z,16.37
2022-12-18T20:24:00.112Z,16.47
2022-12-18T20:26:28.972Z,17.50
2022-12-18T20:28:59.422Z,19.03
2022-12-18T20:31:27.863Z,16.63
2022-12-18T20:34:00.480Z,16.20
2022-12-18T20:36:31.860Z,16.97
2022-12-18T20:39:03.857Z,17.17
2022-12-18T20:41:37.654Z,18.17
2022-12-18T20:44:22.582Z,19.03
2022-12-18T20:46:54.119Z,17.30
2022-12-18T20:49:23.047Z,17.77
2022-12-18T20:51:52.702Z,18.50
2022-12-18T20:54:21.204Z,17.93
2022-12-18T20:56:49.669Z,18.07
2022-12-18T20:59:19.811Z,19.30
2022-12-18T21:01:49.418Z,18.77
2022-12-18T21:04:18.900Z,17.97
2022-12-18T21:06:52.888Z,18.40
2022-12-18T21:09:23.908Z,18.60
2022-12-18T21:12:10.368Z,17.43
2022-12-18T21:14:44.281Z,17.93
2022-12-18T21:17:13.331Z,19.20
2022-12-18T21:19:41.719Z,16.97
2022-12-18T21:22:11.789Z,17.97
2022-12-18T21:24:40.153Z,17.80
2022-12-18T21:27:08.891Z,17.20
2022-12-18T21:29:38.851Z,17.70
2022-12-18T21:32:09.684Z,18.13
2022-12-18T21:34:39.628Z,18.60
2022-12-18T21:37:10.476Z,16.47
2022-12-18T21:39:39.166Z,17.50
2022-12-18T21:42:26.281Z,18.57
2022-12-18T21:44:54.619Z,17.83
2022-12-18T21:47:24.755Z,16.87
2022-12-18T21:49:53.291Z,17.70
2022-12-18T21:52:31.292Z,16.27
2022-12-18T21:55:07.881Z,17.53
2022-12-18T21:57:37.427Z,17.60
2022-12-18T22:00:08.353Z,16.77
2022-12-18T22:02:44.067Z,17.07
2022-12-18T22:05:12.652Z,17.93
2022-12-18T22:07:41.384Z,16.50
2022-12-18T22:10:10.425Z,16.60
2022-12-18T22:12:44.528Z,16.07
2022-12-18T22:15:21.053Z,15.90
2022-12-18T22:17:55.518Z,15.00
2022-12-18T22:20:28.364Z,16.00
2022-12-18T22:22:58.296Z,14.33
2022-12-18T22:25:26.921Z,16.13
2022-12-18T22:28:11.787Z,14.73
2022-12-18T22:30:40.178Z,15.87
2022-12-18T22:33:09.886Z,16.80
2022-12-18T22:35:38.201Z,17.93
2022-12-18T22:38:07.364Z,16.97
2022-12-18T22:40:35.608Z,18.03
2022-12-18T22:43:03.840Z,16.07
2022-12-18T22:45:32.688Z,15.90
2022-12-18T22:48:03.930Z,14.43
2022-12-18T22:50:34.524Z,15.20
2022-12-18T22:53:02.806Z,16.50
2022-12-18T22:55:31.288Z,15.17
2022-12-18T22:57:59.484Z,15.90
2022-12-18T23:00:27.767Z,13.73
2022-12-18T23:03:00.304Z,14.50
2022-12-18T23:05:30.630Z,14.33
2022-12-18T23:08:00.620Z,13.83
2022-12-18T23:10:29.131Z,14.67
2022-12-18T23:12:57.433Z,15.23
2022-12-18T23:15:28.224Z,13.30
2022-12-18T23:17:59.080Z,13.20
2022-12-18T23:20:28.653Z,13.53
2022-12-18T23:22:57.025Z,14.33
2022-12-18T23:25:26.731Z,13.67
2022-12-18T23:27:55.023Z,13.63
2022-12-18T23:30:23.582Z,13.13
2022-12-18T23:32:51.810Z,13.03
2022-12-18T23:35:20.113Z,11.70
2022-12-18T23:38:04.216Z,13.83
2022-12-18T23:40:33.998Z,11.87
2022-12-18T23:43:02.281Z,12.50
2022-12-18T23:45:30.503Z,12.80
2022-12-18T23:47:58.767Z,14.03
2022-12-18T23:50:29.288Z,12.73
2022-12-18T23:53:05.014Z,12.07
2022-12-18T23:55:40.507Z,12.63
2022-12-18T23:58:10.222Z,12.10
